العودة   :: Flying Way :: > ._][_ سـاحة المطـار والطائرات Airport and Aircraft's yard _][_. > السلامة الجوية Flight Safety
تحديث الصفحة [حـادث] تحطم طائرة شحن من طراز AN26 مستأجرة للجنة الانتخابات الوطنية بجمهورية الكونغو ومصرع جميع ركابها البالغ عددهم 7 اشخاص
الملاحظات

السلامة الجوية Flight Safety   متابعة أخبار حوادث الطيران وتحليل المعلومات التي أدت إليها. راجع فهرس قسم  السلامة الجوية

أدوات الموضوع إبحث في الموضوع
الصورة الرمزية محمد احمد عسيري
Flying Way
قديم 23-12-2018, 09:37 AM   رقم المشاركة : [ 1 ]   
مشاهدة ملفه الشخصي
 
 
 
تم شكره 4,894 مرة في 2,776 مشاركة
محمد احمد عسيري يستحق الثقة والتقديرمحمد احمد عسيري يستحق الثقة والتقديرمحمد احمد عسيري يستحق الثقة والتقديرمحمد احمد عسيري يستحق الثقة والتقديرمحمد احمد عسيري يستحق الثقة والتقديرمحمد احمد عسيري يستحق الثقة والتقديرمحمد احمد عسيري يستحق الثقة والتقديرمحمد احمد عسيري يستحق الثقة والتقديرمحمد احمد عسيري يستحق الثقة والتقديرمحمد احمد عسيري يستحق الثقة والتقديرمحمد احمد عسيري يستحق الثقة والتقدير
معدل تقييم المستوى: 14398
Exclamation تحطم طائرة شحن من طراز AN26 مستأجرة للجنة الانتخابات الوطنية بجمهورية الكونغو ومصرع جميع ركابها البالغ عددهم 7 اشخاص

أكدت مصادر محلية تحطم طائرة شحن تستأجرها اللجنة الانتخابات الوطنية في جمهورية الكونغو الديمقراطية بالقرب من مطار كينشاسا عاصمة البلاد.



وتفيد المعلومات المتوفرة، بأن الطائرة التابعة لشركة Gomair، سقطت على بعد 35 كلم من العاصمة كينشاسا، عندما كانت تستعد للهبوط في مطار كينشاسا. وذكرت، أن الاتصال فقد مع الطائرة في مساء أمس الخميس، وتحاول فرق الإنقاذ تحديد مكان سقوط الطائرة.




وأشارت إدارة الشركة المالكة للطائرة، إلى أنها لا تملك حتى الآن أية تفاصيل عن الكارثة الجوية.
من جهتها أعلنت السفارة الروسية في جمهورية الكونغو الديمقراطية، أن الطائرة التي تحطمت مساء الخميس، كانت تقل 23 شخصا، ويعتقد أن بينهم 3 مواطنين روس.




وتفيد تقارير غير مؤكدة حتى الآن، بأن 3 مواطنين روس، كانوا يقودون طائرة الشحن المنكوبة من طراز "أنطونوف-26" وكانت تنقل مواد لوجسية خاصة بالانتخابات إلى مقاطعة كاساي.




وقال السفير الروسي في كينشاسا، ألكسي سنتيبوف، لمراسل وكالة "تاس"، إن مصير الطاقم لا يزال مجهولا حتى الآن.





وكانت وكالة فرانس برس قد أفادت في وقت سابق، بمصرع ستة أشخاص في الحادث، بينهم خمسة من أفراد الطاقم. ولكنها قالت، إن أسماءهم وجنسياتهم لم تحدد بعد.


https://arabic.rt.com/world/990359-%...3%D9%8A%D8%A7/#






Narrative:
An Antonov An-26B transport plane, operated by Gomair, crashed while descending towards the destination of Kinshasa-N'Djili Airport, D.R. Congo and in preparation for an approach to runway 06.

The aircraft was returning from Tshikapa where it had delivered election materials for the national electoral commission (CENI).
On December 21, CENI confirmed that the aircraft had crashed and that all seven occupants and died


https://aviation-safety.net/database...?id=20181220-1.

قديم 23-12-2018, 09:39 AM   رقم المشاركة : [ 2 ]   
محمد احمد عسيري
Flying Way
الصورة الرمزية محمد احمد عسيري
Exclamation رد: تحطم طائرة شحن من طراز AN26 مستأجرة للجنة الانتخابات الوطنية بجمهورية الكونغو ومصرع جميع ركابها البالغ عددهم 7 اشخاص

Crash: Gomair AN26 near Kinshasa on Dec 20th 2018, impacted terrain short of runway


A Gomair Antonov AN-26 on behalf Central Electoral National Independent Commission (CENI), registration 9S-AGB performing a cargo flight from Tshikapa to Kinshasa Ndjili (DR Congo) with 7 or 8 crew and election materials, was cleared to descend to 5000 feet on approach to Ndjili's runway 06 when the aircraft went missing about 20nm short of Kinshasa's runway 06 at about 10:00L (09:00Z). The aircraft was found about 24 hours later in hilly terrain (peaks rising up to 700 meters/2300 feet MSL) about 19nm before runway 06.

Local Congolese media report Authorities did not launch a search for the aircraft. The aircraft was found by random chance by a local, who reported 8 bodies in the wreckage.

CENI reported no official of the Electoral Commission was on board of the aircraft, the official remained in Tshikapa. The plane belonged to Gomair tail number 9S-AGB (former Blue Air 9Q-CZO, later 9S-AZO) and carried 7 crew.

The airline confirmed the aircraft crashed about 35km short of Ndjili Airport.

Locals reported visibility had been poor at the time of the disappearance of the aircraft.

Metars:
FZAA 201100Z 25006KT 7000 SCT016 BKN100 28/23 Q1013 NOSIG=
FZAA 201000Z 27004KT 7000 SCT014 FEW028CB BKN100 26/23 Q1014 RETS NOSIG=
FZAA 200900Z 15004KT 6000 TS SCT012 FEW028CB OVC100 24/23 Q1015 RERA NOSIG=
FZAA 200800Z 17006KT 4000 -TSRA SCT008 FEW026CB OVC080 23/22 Q1015 NOSIG=
FZAA 200700Z 36006KT 4000 -TSRA SCT012 FEW026CB OVC080 23/22 Q1015 TEMPO 2000=
FZAA 200600Z 36010KT 6000 -TSRA FEW014 FEW026CB OVC080 24/23 Q1014 TEMPO 4000 TSRA=
FZAA 200500Z 29006KT 6000 -TSRA FEW014 FEW026CB OVC080 24/23 Q1014 TEMPO 4000 MOD TSRA=
FZAA 200400Z 26006KT 7000 TS SCT016 FEW028CB BKN100 25/23 Q1013 NOSIG=








http://avherald.com/h?article=4c1e3f8e&opt=0
  إقتباس
الأعضاء الذين قالوا شكراً لـ محمد احمد عسيري على المشاركة المفيدة:
alzaiem (23-12-2018)
إضافة رد

«     تحطم طائرة سيسنا 560 في جورجيا الأميركية.. ومقتل جميع ركابها   |    "أبو إلياس".. متهم بتفجير طائرة بان ام B747 المعروفة بقضية لوكربي يعيش قرب نصب تذكاري للضحايا    »


الذين يشاهدون محتوى الموضوع الآن : 1 ( الأعضاء 0 والزوار 1)
 
أدوات الموضوع إبحث في الموضوع
إبحث في الموضوع:

البحث المتقدم

الانتقال السريع

الساعة الآن 05:55 AM.
Powered by vBulletin® Version 3.8.9
Copyright ©2000 - 2019, vBulletin Solutions, Inc.
حق العلم والمعرفة يعادل حق الحياة للأنسان - لذا نحن كمسؤلين في الشبكة متنازلون عن جميع الحقوق
All trademarks and copyrights held by respective owners. Member comments are owned by the poster.
خط الطيران 2004-2019